createdAt,value
2023-04-11T00:00:45.841Z,44.90
2023-04-11T00:03:20.366Z,40.73
2023-04-11T00:05:50.697Z,42.95
2023-04-11T00:08:21.119Z,40.03
2023-04-11T00:10:51.338Z,42.47
2023-04-11T00:13:24.113Z,40.63
2023-04-11T00:15:56.032Z,40.80
2023-04-11T00:18:28.857Z,40.78
2023-04-11T00:20:59.032Z,40.33
2023-04-11T00:23:29.377Z,39.40
2023-04-11T00:25:59.593Z,37.03
2023-04-11T00:28:29.784Z,32.30
2023-04-11T00:30:59.951Z,34.55
2023-04-11T00:33:32.838Z,35.55
2023-04-11T00:36:03.129Z,32.38
2023-04-11T00:38:33.270Z,30.85
2023-04-11T00:41:03.634Z,30.38
2023-04-11T00:43:33.781Z,30.47
2023-04-11T00:46:04.196Z,29.20
2023-04-11T00:48:36.986Z,29.60
2023-04-11T00:51:07.527Z,28.13
2023-04-11T00:53:39.165Z,31.25
2023-04-11T00:56:10.279Z,30.52
2023-04-11T01:01:12.107Z,29.88
2023-04-11T01:03:48.539Z,29.40
2023-04-11T01:06:22.990Z,28.52
2023-04-11T01:08:53.779Z,28.40
2023-04-11T01:11:24.413Z,28.17
2023-04-11T01:13:55.752Z,30.27
2023-04-11T01:16:25.969Z,29.15
2023-04-11T01:18:59.208Z,31.67
2023-04-11T01:21:30.223Z,32.40
2023-04-11T01:24:03.992Z,33.08
2023-04-11T01:26:34.200Z,36.60
2023-04-11T01:29:05.654Z,35.58
2023-04-11T01:31:35.956Z,35.65
2023-04-11T01:34:07.711Z,35.20
2023-04-11T01:36:38.344Z,37.30
2023-04-11T01:39:11.437Z,34.70
2023-04-11T01:41:42.678Z,35.55
2023-04-11T01:44:13.001Z,33.38
2023-04-11T01:46:43.322Z,32.00
2023-04-11T01:49:15.689Z,33.67
2023-04-11T01:51:46.142Z,34.13
2023-04-11T01:54:19.216Z,37.45
2023-04-11T01:56:49.728Z,36.47
2023-04-11T01:59:20.118Z,39.17
2023-04-11T02:01:50.540Z,37.85
2023-04-11T02:04:20.867Z,40.30
2023-04-11T02:06:51.055Z,39.88
2023-04-11T02:09:25.237Z,36.10
2023-04-11T02:11:57.311Z,41.47
2023-04-11T02:14:30.188Z,43.05
2023-04-11T02:17:00.790Z,37.83
2023-04-11T02:19:31.359Z,38.07
2023-04-11T02:22:02.175Z,37.30
2023-04-11T02:24:35.028Z,36.78
2023-04-11T02:27:05.914Z,36.67
2023-04-11T02:29:37.208Z,41.72
2023-04-11T02:32:07.528Z,39.72
2023-04-11T02:34:37.863Z,41.85
2023-04-11T02:37:08.088Z,38.88
2023-04-11T02:39:40.980Z,42.13
2023-04-11T02:42:11.398Z,45.67
2023-04-11T02:44:41.626Z,41.00
2023-04-11T02:47:11.984Z,41.65
2023-04-11T02:49:44.210Z,52.65
2023-04-11T02:52:19.281Z,60.78
2023-04-11T02:54:52.091Z,49.35
2023-04-11T02:57:22.258Z,50.63
2023-04-11T02:59:52.548Z,46.65
2023-04-11T03:02:30.453Z,48.30
2023-04-11T03:05:04.367Z,45.08
2023-04-11T03:07:38.770Z,43.97
2023-04-11T03:10:12.592Z,43.63
2023-04-11T03:12:43.159Z,45.53
2023-04-11T03:15:15.734Z,45.47
2023-04-11T03:20:19.958Z,45.30
2023-04-11T03:22:53.747Z,50.75
2023-04-11T03:25:28.411Z,45.88
2023-04-11T03:27:59.146Z,49.35
2023-04-11T03:33:01.437Z,49.05
2023-04-11T03:35:33.168Z,46.35
2023-04-11T03:38:03.525Z,48.70
2023-04-11T03:40:36.700Z,49.05
2023-04-11T03:43:14.615Z,50.58
2023-04-11T03:45:44.858Z,45.47
2023-04-11T03:48:26.744Z,45.33
2023-04-11T03:51:02.273Z,44.67
2023-04-11T03:53:40.896Z,47.15
2023-04-11T03:56:27.202Z,44.08
2023-04-11T03:58:57.846Z,46.75
2023-04-11T04:01:32.334Z,44.90
2023-04-11T04:04:06.699Z,47.92
2023-04-11T04:06:40.472Z,45.35
2023-04-11T04:09:11.460Z,47.30
2023-04-11T04:12:02.004Z,42.53
2023-04-11T04:17:20.960Z,44.83
2023-04-11T04:19:51.984Z,43.00
2023-04-11T04:22:24.032Z,46.72
2023-04-11T04:24:58.583Z,42.17
2023-04-11T04:27:34.669Z,43.67
2023-04-11T04:30:05.811Z,43.55
2023-04-11T04:32:49.132Z,47.95
2023-04-11T04:35:19.527Z,43.65
2023-04-11T04:37:50.304Z,45.53
2023-04-11T04:40:55.089Z,44.25
2023-04-11T04:43:32.582Z,45.72
2023-04-11T04:46:23.864Z,45.22
2023-04-11T04:48:56.965Z,41.50
2023-04-11T04:51:30.448Z,41.10
2023-04-11T04:54:00.691Z,42.63
2023-04-11T04:56:33.278Z,43.70
2023-04-11T04:59:06.333Z,44.72
2023-04-11T05:01:40.361Z,43.60
2023-04-11T05:04:14.228Z,40.05
2023-04-11T05:06:55.768Z,45.75
2023-04-11T05:09:26.649Z,41.60
2023-04-11T05:12:06.710Z,45.20
2023-04-11T05:14:42.439Z,48.92
2023-04-11T05:17:13.021Z,42.70
2023-04-11T05:19:44.109Z,45.75
2023-04-11T05:22:17.063Z,43.95
2023-04-11T05:24:52.073Z,44.70
2023-04-11T05:27:22.319Z,43.70
2023-04-11T05:29:55.476Z,45.58
2023-04-11T05:32:26.098Z,42.13
2023-04-11T05:34:59.257Z,46.42
2023-04-11T05:37:38.790Z,44.33
2023-04-11T05:40:11.857Z,45.88
2023-04-11T05:42:42.550Z,49.80
2023-04-11T05:45:15.816Z,45.33
2023-04-11T05:47:46.588Z,51.20
2023-04-11T05:50:17.717Z,47.05
2023-04-11T05:55:18.340Z,44.25
2023-04-11T05:57:48.593Z,43.97
2023-04-11T06:00:24.457Z,44.63
2023-04-11T06:02:55.343Z,44.25
2023-04-11T06:07:56.203Z,45.67
2023-04-11T06:10:26.593Z,44.67
2023-04-11T06:12:57.353Z,44.95
2023-04-11T06:15:30.666Z,40.00
2023-04-11T06:18:01.002Z,44.70
2023-04-11T06:20:31.462Z,43.25
2023-04-11T06:23:02.208Z,43.88
2023-04-11T06:25:32.618Z,43.33
2023-04-11T06:28:02.794Z,43.05
2023-04-11T06:30:36.092Z,46.20
2023-04-11T06:33:06.349Z,39.25
2023-04-11T06:35:36.977Z,41.90
2023-04-11T06:38:07.551Z,39.13
2023-04-11T06:40:39.141Z,37.42
2023-04-11T06:43:09.553Z,37.03
2023-04-11T06:45:42.890Z,40.72
2023-04-11T06:48:13.117Z,38.78
2023-04-11T06:50:43.408Z,38.50
2023-04-11T06:53:13.689Z,35.88
2023-04-11T06:55:43.817Z,39.60
2023-04-11T06:58:14.054Z,38.50
2023-04-11T07:00:47.170Z,36.00
2023-04-11T07:03:17.535Z,35.47
2023-04-11T07:05:51.012Z,39.38
2023-04-11T07:08:21.759Z,39.05
2023-04-11T07:13:24.780Z,38.80
2023-04-11T07:15:58.666Z,40.88
2023-04-11T07:18:29.010Z,42.58
2023-04-11T07:20:59.244Z,39.97
2023-04-11T07:23:29.434Z,43.27
2023-04-11T07:25:59.628Z,41.27
2023-04-11T07:28:31.512Z,41.13
2023-04-11T07:31:04.340Z,40.88
2023-04-11T07:33:34.697Z,39.22
2023-04-11T07:36:05.042Z,44.73
2023-04-11T07:38:37.868Z,45.35
2023-04-11T07:41:09.024Z,41.10
2023-04-11T07:43:39.527Z,36.63
2023-04-11T07:46:12.618Z,38.10
2023-04-11T07:48:42.919Z,34.33
2023-04-11T07:51:13.056Z,31.30
2023-04-11T07:53:43.232Z,33.97
2023-04-11T07:56:14.153Z,34.83
2023-04-11T07:58:44.617Z,30.70
2023-04-11T08:01:27.215Z,35.60
2023-04-11T08:04:00.105Z,31.17
2023-04-11T08:06:31.978Z,34.03
2023-04-11T08:09:02.266Z,34.53
2023-04-11T08:11:32.904Z,31.92
2023-04-11T08:14:03.563Z,26.17
2023-04-11T08:16:37.841Z,26.73
2023-04-11T08:19:08.078Z,26.77
2023-04-11T08:21:38.291Z,22.13
2023-04-11T08:24:08.870Z,22.42
2023-04-11T08:26:39.692Z,27.65
2023-04-11T08:29:11.530Z,26.35
2023-04-11T08:31:45.957Z,16.42
2023-04-11T08:34:17.600Z,23.02
2023-04-11T08:36:47.814Z,30.63
2023-04-11T08:39:17.990Z,23.20
2023-04-11T08:41:48.375Z,24.77
2023-04-11T08:44:18.816Z,22.90
2023-04-11T08:46:51.786Z,23.77
2023-04-11T08:49:22.103Z,30.02
2023-04-11T08:51:56.878Z,38.00
2023-04-11T08:54:27.836Z,32.45
2023-04-11T08:56:58.788Z,22.33
2023-04-11T09:02:10.094Z,32.88
2023-04-11T09:04:44.916Z,27.48
2023-04-11T09:07:16.082Z,29.08
2023-04-11T09:12:17.466Z,32.60
2023-04-11T09:14:47.878Z,34.25
2023-04-11T09:17:20.727Z,32.93
2023-04-11T09:19:51.033Z,32.97
2023-04-11T09:22:21.460Z,32.40
2023-04-11T09:25:05.397Z,32.25
2023-04-11T09:27:35.785Z,35.42
2023-04-11T09:30:06.109Z,33.33
2023-04-11T09:32:39.199Z,30.13
2023-04-11T09:35:15.939Z,30.05
2023-04-11T09:37:47.975Z,31.48
2023-04-11T09:40:21.255Z,26.80
2023-04-11T09:42:53.052Z,28.63
2023-04-11T09:45:24.809Z,27.40
2023-04-11T09:47:59.516Z,30.75
2023-04-11T09:50:32.599Z,28.42
2023-04-11T09:53:03.251Z,27.30
2023-04-11T09:55:33.740Z,29.25
2023-04-11T09:58:04.289Z,26.08
2023-04-11T10:00:35.600Z,26.83
2023-04-11T10:03:09.240Z,27.83
2023-04-11T10:05:41.384Z,27.02
2023-04-11T10:08:17.593Z,27.77
2023-04-11T10:10:50.995Z,27.90
2023-04-11T10:13:42.997Z,22.70
2023-04-11T10:16:15.653Z,19.77
2023-04-11T10:19:28.290Z,26.08
2023-04-11T10:22:01.415Z,17.23
2023-04-11T10:24:31.670Z,11.40
2023-04-11T10:27:04.421Z,16.90
2023-04-11T10:29:51.837Z,16.52
2023-04-11T10:32:24.412Z,13.95
2023-04-11T10:35:31.141Z,10.90
2023-04-11T10:38:03.900Z,13.32
2023-04-11T10:40:34.140Z,10.32
2023-04-11T10:43:23.664Z,14.17
2023-04-11T10:46:23.508Z,12.85
2023-04-11T10:49:00.969Z,13.00
2023-04-11T10:51:32.313Z,16.02
2023-04-11T10:54:06.390Z,11.40
2023-04-11T10:56:57.826Z,9.73
2023-04-11T11:00:12.873Z,14.07
2023-04-11T11:02:45.895Z,10.27
2023-04-11T11:05:23.629Z,11.88
2023-04-11T11:07:56.221Z,12.48
2023-04-11T11:10:43.913Z,12.00
2023-04-11T11:13:14.080Z,12.32
2023-04-11T11:15:51.473Z,12.00
2023-04-11T11:18:22.348Z,13.35
2023-04-11T11:20:58.402Z,14.52
2023-04-11T11:23:28.715Z,15.77
2023-04-11T11:26:03.077Z,11.50
2023-04-11T11:28:33.289Z,12.63
2023-04-11T11:31:04.316Z,11.93
2023-04-11T11:33:36.599Z,12.15
2023-04-11T11:41:13.091Z,14.35
2023-04-11T11:43:43.608Z,15.68
2023-04-11T11:46:17.853Z,16.92
2023-04-11T11:49:02.336Z,15.75
2023-04-11T11:51:43.918Z,15.75
2023-04-11T11:54:15.161Z,15.88
2023-04-11T11:56:54.523Z,12.63
2023-04-11T11:59:30.445Z,14.85
2023-04-11T12:02:00.994Z,14.05
2023-04-11T12:04:31.521Z,17.25
2023-04-11T12:07:11.466Z,13.60
2023-04-11T12:09:43.429Z,14.13
2023-04-11T12:12:18.899Z,13.70
2023-04-11T12:14:56.358Z,18.73
2023-04-11T12:17:26.582Z,11.43
2023-04-11T12:19:59.381Z,11.45
2023-04-11T12:22:29.804Z,14.75
2023-04-11T12:25:08.234Z,15.10
2023-04-11T12:27:41.846Z,15.40
2023-04-11T12:30:13.573Z,12.65
2023-04-11T12:32:44.025Z,12.38
2023-04-11T12:35:17.519Z,11.52
2023-04-11T12:37:48.155Z,10.20
2023-04-11T12:40:18.447Z,10.77
2023-04-11T12:42:56.458Z,13.20
2023-04-11T12:45:28.171Z,12.13
2023-04-11T12:47:58.371Z,14.38
2023-04-11T12:50:28.595Z,13.55
2023-04-11T12:52:58.810Z,14.48
2023-04-11T12:55:30.195Z,26.40
2023-04-11T12:58:03.098Z,15.25
2023-04-11T13:00:33.897Z,12.73
2023-04-11T13:03:05.028Z,12.47
2023-04-11T13:05:37.452Z,14.07
2023-04-11T13:08:10.080Z,16.10
2023-04-11T13:10:41.134Z,25.23
2023-04-11T13:15:48.027Z,12.80
2023-04-11T13:18:18.609Z,12.60
2023-04-11T13:20:49.116Z,18.08
2023-04-11T13:23:19.546Z,28.45
2023-04-11T13:25:49.826Z,38.05
2023-04-11T13:28:22.712Z,20.67
2023-04-11T13:30:53.306Z,16.85
2023-04-11T13:33:23.869Z,11.35
2023-04-11T13:35:54.081Z,16.08
2023-04-11T13:38:24.264Z,15.82
2023-04-11T13:40:54.593Z,11.45
2023-04-11T13:43:28.307Z,11.52
2023-04-11T13:45:58.844Z,13.20
2023-04-11T13:48:29.322Z,12.23
2023-04-11T13:51:00.255Z,12.65
2023-04-11T13:53:30.898Z,11.85
2023-04-11T13:56:01.182Z,9.23
2023-04-11T13:58:35.105Z,10.77
2023-04-11T14:01:05.747Z,11.48
2023-04-11T14:03:36.646Z,14.85
2023-04-11T14:06:09.169Z,11.52
2023-04-11T14:08:39.995Z,11.43
2023-04-11T14:11:11.055Z,14.20
2023-04-11T14:16:14.698Z,15.45
2023-04-11T14:18:45.570Z,15.60
2023-04-11T14:21:15.831Z,13.10
2023-04-11T14:23:46.167Z,13.07
2023-04-11T14:26:16.355Z,15.70
2023-04-11T14:28:49.114Z,11.90
2023-04-11T14:31:19.315Z,14.60
2023-04-11T14:33:49.600Z,12.95
2023-04-11T14:36:19.772Z,15.88
2023-04-11T14:38:50.012Z,13.73
2023-04-11T14:41:20.823Z,18.20
2023-04-11T14:43:53.605Z,16.27
2023-04-11T14:46:23.854Z,14.20
2023-04-11T14:48:54.305Z,13.23
2023-04-11T14:51:27.380Z,12.55
2023-04-11T14:53:59.973Z,12.70
2023-04-11T14:56:30.956Z,16.45
2023-04-11T14:59:06.840Z,16.48
2023-04-11T15:01:37.122Z,14.15
2023-04-11T15:04:07.717Z,19.73
2023-04-11T15:06:38.284Z,14.63
2023-04-11T15:09:09.113Z,18.08
2023-04-11T15:11:39.652Z,15.18
2023-04-11T15:14:12.419Z,19.60
2023-04-11T15:16:42.655Z,19.98
2023-04-11T15:19:12.892Z,18.87
2023-04-11T15:21:43.070Z,14.63
2023-04-11T15:24:13.559Z,12.40
2023-04-11T15:26:47.072Z,13.85
2023-04-11T15:29:20.273Z,13.35
2023-04-11T15:31:50.507Z,16.52
2023-04-11T15:34:23.541Z,14.32
2023-04-11T15:36:53.808Z,15.68
2023-04-11T15:39:24.236Z,15.70
2023-04-11T15:41:54.452Z,15.27
2023-04-11T15:44:28.510Z,15.57
2023-04-11T15:46:58.947Z,14.40
2023-04-11T15:49:29.210Z,18.90
2023-04-11T15:51:59.789Z,12.43
2023-04-11T15:54:29.994Z,12.80
2023-04-11T15:57:00.191Z,15.82
2023-04-11T15:59:33.682Z,13.60
2023-04-11T16:02:03.959Z,11.20
2023-04-11T16:04:34.416Z,13.90
2023-04-11T16:07:05.984Z,22.30
2023-04-11T16:09:36.188Z,12.25
2023-04-11T16:12:07.606Z,13.38
2023-04-11T16:14:40.289Z,14.63
2023-04-11T16:17:10.648Z,17.70
2023-04-11T16:19:41.640Z,15.23
2023-04-11T16:24:41.820Z,16.58
2023-04-11T16:27:12.090Z,14.90
2023-04-11T16:29:45.022Z,19.35
2023-04-11T16:32:15.343Z,15.77
2023-04-11T16:34:45.817Z,15.87
2023-04-11T16:37:16.513Z,16.25
2023-04-11T16:39:46.823Z,21.45
2023-04-11T16:42:17.242Z,17.80
2023-04-11T16:44:50.001Z,14.18
2023-04-11T16:47:20.703Z,19.13
2023-04-11T16:49:51.010Z,17.73
2023-04-11T16:52:21.639Z,15.10
2023-04-11T16:54:52.011Z,21.67
2023-04-11T16:57:22.471Z,25.08
2023-04-11T16:59:55.269Z,19.67
2023-04-11T17:02:25.693Z,24.77
2023-04-11T17:04:56.197Z,19.20
2023-04-11T17:07:28.671Z,30.98
2023-04-11T17:09:58.828Z,25.50
2023-04-11T17:12:29.175Z,32.17
2023-04-11T17:15:03.204Z,30.57
2023-04-11T17:20:25.828Z,24.40
2023-04-11T17:23:05.805Z,33.97
2023-04-11T17:25:40.526Z,29.58
2023-04-11T17:28:16.999Z,32.08
2023-04-11T17:30:54.529Z,31.17
2023-04-11T17:33:28.476Z,32.35
2023-04-11T17:36:06.872Z,28.23
2023-04-11T17:38:49.228Z,29.52
2023-04-11T17:41:39.265Z,32.22
2023-04-11T17:47:18.827Z,31.92
2023-04-11T17:49:58.135Z,44.15
2023-04-11T17:52:29.093Z,44.83
2023-04-11T17:55:03.801Z,50.60
2023-04-11T17:57:40.088Z,46.85
2023-04-11T18:00:30.602Z,43.03
2023-04-11T18:03:12.781Z,54.35
2023-04-11T18:06:15.167Z,51.92
2023-04-11T18:09:00.634Z,50.17
2023-04-11T18:11:43.163Z,46.75
2023-04-11T18:14:23.213Z,46.70
2023-04-11T18:17:04.426Z,47.88
2023-04-11T18:19:46.242Z,50.75
2023-04-11T18:22:17.414Z,55.17
2023-04-11T18:24:52.822Z,59.38
2023-04-11T18:27:29.776Z,58.58
2023-04-11T18:30:09.246Z,76.50
2023-04-11T18:32:51.093Z,79.50
2023-04-11T18:35:32.919Z,87.55
2023-04-11T18:38:12.068Z,82.45
2023-04-11T18:40:55.420Z,106.93
2023-04-11T18:43:40.620Z,87.68
2023-04-11T18:46:15.231Z,102.97
2023-04-11T18:48:51.134Z,98.45
2023-04-11T18:51:27.496Z,104.75
2023-04-11T18:54:03.593Z,88.45
2023-04-11T18:56:40.546Z,89.32
2023-04-11T18:59:15.836Z,93.68
2023-04-11T19:01:51.927Z,94.35
2023-04-11T19:04:26.351Z,80.90
2023-04-11T19:07:04.124Z,84.18
2023-04-11T19:09:51.022Z,85.47
2023-04-11T19:12:27.598Z,87.22
2023-04-11T19:15:06.075Z,89.05
2023-04-11T19:17:52.847Z,83.68
2023-04-11T19:20:33.267Z,85.28
2023-04-11T19:23:18.382Z,86.38
2023-04-11T19:25:58.294Z,97.65
2023-04-11T19:28:35.366Z,96.45
2023-04-11T19:31:05.688Z,90.43
2023-04-11T19:33:40.101Z,98.00
2023-04-11T19:36:19.979Z,99.90
2023-04-11T19:39:14.449Z,101.15
2023-04-11T19:42:13.428Z,100.85
2023-04-11T19:44:52.166Z,111.03
2023-04-11T19:47:30.050Z,100.60
2023-04-11T19:50:07.681Z,107.80
2023-04-11T19:52:45.858Z,95.28
2023-04-11T19:55:32.411Z,98.22
2023-04-11T19:58:07.067Z,95.93
2023-04-11T20:00:45.608Z,80.68
2023-04-11T20:03:23.426Z,70.07
2023-04-11T20:06:05.830Z,64.32
2023-04-11T20:08:43.253Z,35.58
2023-04-11T20:11:23.434Z,29.13
2023-04-11T20:13:59.964Z,28.10
2023-04-11T20:16:40.792Z,21.05
2023-04-11T20:19:15.575Z,24.83
2023-04-11T20:21:51.006Z,22.00
2023-04-11T20:24:26.407Z,22.23
2023-04-11T20:27:02.398Z,22.75
2023-04-11T20:29:39.368Z,21.10
2023-04-11T20:32:12.947Z,20.58
2023-04-11T20:34:58.629Z,19.92
2023-04-11T20:37:36.784Z,18.95
2023-04-11T20:40:14.779Z,20.70
2023-04-11T20:42:58.560Z,18.92
2023-04-11T20:45:36.365Z,17.55
2023-04-11T20:48:13.891Z,15.82
2023-04-11T20:50:48.977Z,16.08
2023-04-11T20:53:28.388Z,17.05
2023-04-11T20:56:06.558Z,16.40
2023-04-11T20:58:56.978Z,19.00
2023-04-11T21:01:38.447Z,16.42
2023-04-11T21:04:19.775Z,13.27
2023-04-11T21:09:31.940Z,15.23
2023-04-11T21:12:13.533Z,14.07
2023-04-11T21:14:54.124Z,17.83
2023-04-11T21:17:31.572Z,21.40
2023-04-11T21:20:12.502Z,14.02
2023-04-11T21:22:45.529Z,14.70
2023-04-11T21:25:24.489Z,12.07
2023-04-11T21:28:00.573Z,17.15
2023-04-11T21:30:36.902Z,15.55
2023-04-11T21:33:12.349Z,16.38
2023-04-11T21:35:52.405Z,12.50
2023-04-11T21:38:31.991Z,12.13
2023-04-11T21:41:03.223Z,11.70
2023-04-11T21:43:40.319Z,13.18
2023-04-11T21:46:21.659Z,11.65
2023-04-11T21:48:59.048Z,10.32
2023-04-11T21:51:36.361Z,13.43
2023-04-11T21:54:12.282Z,14.02
2023-04-11T21:56:47.099Z,12.20
2023-04-11T21:59:19.747Z,17.83
2023-04-11T22:01:59.261Z,13.77
2023-04-11T22:04:51.306Z,9.40
2023-04-11T22:07:48.159Z,13.23
2023-04-11T22:10:41.114Z,12.13
2023-04-11T22:13:21.413Z,19.75
2023-04-11T22:16:05.682Z,15.48
2023-04-11T22:18:53.670Z,14.38
2023-04-11T22:21:29.662Z,13.50
2023-04-11T22:24:10.866Z,13.50
2023-04-11T22:26:58.484Z,12.55
2023-04-11T22:29:36.826Z,13.25
2023-04-11T22:32:10.896Z,9.00
2023-04-11T22:34:45.223Z,10.30
2023-04-11T22:37:34.129Z,9.32
2023-04-11T22:40:07.797Z,5.15
2023-04-11T22:42:47.167Z,5.20
2023-04-11T22:45:22.153Z,4.75
2023-04-11T22:48:08.962Z,3.58
2023-04-11T22:51:00.198Z,3.58
2023-04-11T22:53:37.761Z,4.90
2023-04-11T22:56:15.526Z,2.63
2023-04-11T22:58:57.551Z,3.17
2023-04-11T23:01:30.987Z,6.43
2023-04-11T23:04:13.509Z,5.80
2023-04-11T23:06:51.226Z,4.10
2023-04-11T23:09:27.657Z,4.63
2023-04-11T23:12:19.978Z,5.93
2023-04-11T23:15:05.667Z,6.15
2023-04-11T23:17:48.306Z,5.07
2023-04-11T23:20:22.602Z,5.47
2023-04-11T23:23:07.911Z,5.85
2023-04-11T23:25:50.784Z,4.90
2023-04-11T23:28:28.338Z,4.97
2023-04-11T23:31:01.371Z,4.15
2023-04-11T23:33:34.630Z,3.95
2023-04-11T23:36:08.042Z,5.40
2023-04-11T23:38:42.503Z,5.45
2023-04-11T23:41:19.781Z,6.10
2023-04-11T23:43:58.201Z,6.53
2023-04-11T23:46:37.501Z,6.05
2023-04-11T23:49:14.101Z,4.20
2023-04-11T23:51:57.701Z,3.88
2023-04-11T23:54:32.698Z,4.13
2023-04-11T23:57:12.213Z,7.57
2023-04-11T23:59:48.617Z,6.40
